Time;durP1;ratioP1;P1;durP2;ratioP2;P2;SDS_P1;SDS_P2;PMS_P1;PMS_P2;Temp;Humidity;BMP_temperature;BMP_pressure;BME280_temperature;BME280_humidity;BME280_pressure;Samples;Min_cycle;Max_cycle;Signal;HPM_P1;HPM_P2
2022/07/28 00:00:46;;;;;;;1.87;0.87;;;;;;;;;;5093794;28;20038;-64
2022/07/28 00:03:12;;;;;;;1.33;1.03;;;;;;;;;;5094589;28;20032;-64
2022/07/28 00:05:40;;;;;;;1.60;1.17;;;;;;;;;;5093042;28;20020;-64
2022/07/28 00:08:08;;;;;;;2.03;1.40;;;;;;;;;;5072567;28;20024;-64
2022/07/28 00:10:35;;;;;;;1.23;0.77;;;;;;;;;;5088645;28;20034;-64
2022/07/28 00:13:02;;;;;;;1.53;1.10;;;;;;;;;;5089023;28;20408;-64
2022/07/28 00:15:29;;;;;;;1.87;1.27;;;;;;;;;;5088375;28;20047;-65
2022/07/28 00:17:55;;;;;;;1.27;0.80;;;;;;;;;;5093810;28;20101;-65
2022/07/28 00:20:22;;;;;;;1.03;0.93;;;;;;;;;;5093665;28;20023;-65
2022/07/28 00:22:49;;;;;;;2.50;1.30;;;;;;;;;;5093430;28;20063;-65
2022/07/28 00:25:16;;;;;;;2.47;1.53;;;;;;;;;;5093223;28;20024;-65
2022/07/28 00:27:42;;;;;;;2.57;1.23;;;;;;;;;;5093860;28;20039;-65
2022/07/28 00:30:09;;;;;;;1.53;1.03;;;;;;;;;;5088110;28;20085;-65
2022/07/28 00:32:36;;;;;;;1.60;1.17;;;;;;;;;;5088461;28;20036;-65
2022/07/28 00:35:03;;;;;;;1.80;1.30;;;;;;;;;;5087445;28;20119;-65
2022/07/28 00:37:30;;;;;;;1.73;1.30;;;;;;;;;;5088214;28;20032;-65
2022/07/28 00:39:57;;;;;;;3.53;1.40;;;;;;;;;;5092483;28;20062;-65
2022/07/28 00:42:23;;;;;;;1.40;0.93;;;;;;;;;;5093411;28;20028;-62
2022/07/28 00:44:50;;;;;;;4.43;1.77;;;;;;;;;;5102622;28;20039;-63
2022/07/28 00:47:18;;;;;;;2.40;1.53;;;;;;;;;;5093617;28;20444;-63
2022/07/28 00:49:47;;;;;;;1.90;1.33;;;;;;;;;;5093302;28;20028;-63
2022/07/28 00:52:16;;;;;;;4.50;1.53;;;;;;;;;;5088252;28;20028;-63
2022/07/28 00:54:43;;;;;;;2.20;1.33;;;;;;;;;;5088113;28;20044;-63
2022/07/28 00:57:10;;;;;;;3.43;1.37;;;;;;;;;;5088202;28;20028;-63
2022/07/28 00:59:37;;;;;;;2.97;1.10;;;;;;;;;;5088057;28;20032;-63
2022/07/28 01:02:04;;;;;;;4.93;1.30;;;;;;;;;;5092274;28;20454;-63
2022/07/28 01:04:30;;;;;;;1.83;1.37;;;;;;;;;;5093245;28;20020;-63
2022/07/28 01:07:05;;;;;;;1.47;0.90;;;;;;;;;;5092795;28;20027;-63
2022/07/28 01:09:38;;;;;;;1.52;0.98;;;;;;;;;;5093233;28;20027;-62
2022/07/28 01:12:05;;;;;;;2.37;1.40;;;;;;;;;;5092969;28;20061;-63
2022/07/28 01:14:36;;;;;;;2.70;1.40;;;;;;;;;;5087816;28;20360;-63
2022/07/28 01:17:14;;;;;;;1.27;1.00;;;;;;;;;;5087736;28;20016;-63
2022/07/28 01:19:43;;;;;;;3.10;1.90;;;;;;;;;;5087721;28;20049;-63
2022/07/28 01:22:12;;;;;;;1.53;1.23;;;;;;;;;;5087642;28;20024;-62
2022/07/28 01:24:51;;;;;;;3.37;1.30;;;;;;;;;;5092471;28;20031;-62
2022/07/28 01:27:26;;;;;;;1.93;1.37;;;;;;;;;;5093015;28;20077;-63
2022/07/28 01:29:52;;;;;;;;;;;;;;;;;;5093394;28;20078;-63
2022/07/28 01:32:24;;;;;;;1.53;1.03;;;;;;;;;;5092874;28;19908;-63
2022/07/28 01:35:09;;;;;;;2.63;1.60;;;;;;;;;;5091837;28;20376;-63
2022/07/28 01:37:40;;;;;;;2.13;1.30;;;;;;;;;;5087300;28;20558;-63
2022/07/28 01:40:07;;;;;;;6.00;1.80;;;;;;;;;;5087576;28;20028;-63
2022/07/28 01:42:37;;;;;;;1.80;1.10;;;;;;;;;;5087088;28;20025;-63
2022/07/28 01:45:04;;;;;;;1.63;0.80;;;;;;;;;;5088049;28;20028;-62
2022/07/28 01:47:31;;;;;;;5.10;1.57;;;;;;;;;;5092542;28;20020;-63
2022/07/28 01:50:00;;;;;;;2.50;1.20;;;;;;;;;;5092537;28;20093;-63
2022/07/28 01:52:27;;;;;;;3.47;2.00;;;;;;;;;;5092606;28;20494;-62
2022/07/28 01:54:54;;;;;;;2.57;2.03;;;;;;;;;;5091987;28;20032;-62
2022/07/28 01:57:21;;;;;;;2.57;2.13;;;;;;;;;;5091576;28;20095;-63
2022/07/28 01:59:48;;;;;;;7.20;2.27;;;;;;;;;;5086929;28;20032;-63
2022/07/28 02:02:17;;;;;;;2.40;1.43;;;;;;;;;;5087146;28;20024;-63
2022/07/28 02:04:46;;;;;;;6.13;2.10;;;;;;;;;;5087276;28;20438;-63
2022/07/28 02:07:13;;;;;;;4.33;2.50;;;;;;;;;;5087067;28;20092;-63
2022/07/28 02:09:42;;;;;;;2.77;1.77;;;;;;;;;;5092025;28;20025;-63
2022/07/28 02:12:09;;;;;;;1.90;1.60;;;;;;;;;;5092395;28;20095;-63
2022/07/28 02:14:37;;;;;;;3.63;2.23;;;;;;;;;;5092168;28;20024;-63
2022/07/28 02:17:06;;;;;;;2.43;1.70;;;;;;;;;;5092134;28;20141;-63
2022/07/28 02:19:34;;;;;;;3.47;2.60;;;;;;;;;;5091489;28;20024;-63
2022/07/28 02:22:02;;;;;;;22.27;2.20;;;;;;;;;;5086821;28;20024;-62
2022/07/28 02:24:29;;;;;;;3.00;1.77;;;;;;;;;;5086519;28;20027;-63
2022/07/28 02:27:00;;;;;;;4.60;2.07;;;;;;;;;;5086984;28;20035;-63
2022/07/28 02:29:28;;;;;;;7.20;1.77;;;;;;;;;;5087191;28;20432;-63
2022/07/28 02:32:04;;;;;;;2.03;1.43;;;;;;;;;;5091889;28;20016;-63
2022/07/28 02:34:31;;;;;;;3.03;2.13;;;;;;;;;;5091848;28;20074;-63
2022/07/28 02:36:59;;;;;;;2.67;1.50;;;;;;;;;;5092108;28;20051;-63
2022/07/28 02:39:28;;;;;;;2.10;1.23;;;;;;;;;;5071681;28;20098;-62
2022/07/28 02:42:09;;;;;;;2.37;1.20;;;;;;;;;;5070999;28;20108;-63
2022/07/28 02:44:39;;;;;;;1.53;1.27;;;;;;;;;;5066224;28;20090;-63
2022/07/28 02:47:09;;;;;;;4.17;2.23;;;;;;;;;;5067564;28;20505;-63
2022/07/28 02:49:36;;;;;;;2.00;1.60;;;;;;;;;;5069855;28;20020;-63
2022/07/28 02:52:06;;;;;;;20.87;1.20;;;;;;;;;;5080341;28;20035;-64
2022/07/28 02:54:34;;;;;;;1.97;1.00;;;;;;;;;;5104851;28;20028;-64
2022/07/28 02:57:01;;;;;;;2.97;1.90;;;;;;;;;;5095552;28;20059;-64
2022/07/28 02:59:28;;;;;;;2.17;1.60;;;;;;;;;;5095033;28;20091;-64
2022/07/28 03:01:56;;;;;;;2.87;1.63;;;;;;;;;;5095643;28;20070;-64
2022/07/28 03:07:09;;;;;;;2.83;1.33;;;;;;;;;;5089390;28;20093;-64
2022/07/28 03:09:43;;;;;;;4.50;1.20;;;;;;;;;;5090055;28;20047;-64
2022/07/28 03:12:10;;;;;;;2.03;1.50;;;;;;;;;;5089886;28;20051;-64
2022/07/28 03:14:36;;;;;;;3.63;1.37;;;;;;;;;;5090901;28;20024;-65
2022/07/28 03:17:03;;;;;;;3.10;2.17;;;;;;;;;;5092210;28;20543;-66
2022/07/28 03:19:30;;;;;;;1.40;1.13;;;;;;;;;;5091690;28;20111;-64
2022/07/28 03:21:57;;;;;;;3.10;1.93;;;;;;;;;;5074981;28;20024;-63
2022/07/28 03:24:25;;;;;;;5.57;2.07;;;;;;;;;;5075698;28;20042;-64
2022/07/28 03:27:13;;;;;;;2.27;1.63;;;;;;;;;;5092898;28;20069;-63
2022/07/28 03:29:41;;;;;;;2.77;1.57;;;;;;;;;;5089190;28;20383;-64
2022/07/28 03:32:08;;;;;;;2.70;1.70;;;;;;;;;;5089622;28;20032;-64
2022/07/28 03:34:35;;;;;;;1.93;1.53;;;;;;;;;;5089336;28;20598;-64
2022/07/28 03:37:07;;;;;;;8.63;1.47;;;;;;;;;;5090968;28;20024;-64
2022/07/28 03:39:45;;;;;;;2.70;1.87;;;;;;;;;;5094640;28;20024;-64
2022/07/28 03:42:13;;;;;;;4.30;1.77;;;;;;;;;;5094542;28;20115;-64
2022/07/28 03:44:40;;;;;;;1.87;1.50;;;;;;;;;;5094285;28;20593;-67
2022/07/28 03:47:06;;;;;;;2.27;1.77;;;;;;;;;;5094614;28;20103;-65
2022/07/28 03:49:33;;;;;;;3.20;1.87;;;;;;;;;;5088487;28;20460;-63
2022/07/28 03:52:00;;;;;;;3.40;1.60;;;;;;;;;;5081236;28;20039;-65
2022/07/28 03:54:26;;;;;;;1.27;1.07;;;;;;;;;;5069080;28;20047;-64
2022/07/28 03:56:53;;;;;;;2.17;1.37;;;;;;;;;;5068746;28;20024;-64
2022/07/28 03:59:20;;;;;;;3.33;1.50;;;;;;;;;;5070270;28;20031;-64
2022/07/28 04:01:47;;;;;;;1.53;1.30;;;;;;;;;;5088436;28;20024;-64
2022/07/28 04:04:13;;;;;;;2.63;1.63;;;;;;;;;;5094502;28;20045;-64
2022/07/28 04:06:40;;;;;;;2.57;1.50;;;;;;;;;;5094360;28;20024;-65
2022/07/28 04:09:07;;;;;;;2.53;1.30;;;;;;;;;;5093853;28;20099;-65
2022/07/28 04:11:33;;;;;;;1.00;0.80;;;;;;;;;;5092708;28;20088;-64
2022/07/28 04:14:00;;;;;;;1.47;1.27;;;;;;;;;;5088329;28;20048;-63
2022/07/28 04:16:27;;;;;;;2.90;1.53;;;;;;;;;;5088718;28;20028;-64
2022/07/28 04:18:53;;;;;;;5.13;2.50;;;;;;;;;;5088858;28;20124;-64
2022/07/28 04:21:21;;;;;;;3.40;2.20;;;;;;;;;;5089226;28;20024;-63
2022/07/28 04:23:48;;;;;;;1.80;1.40;;;;;;;;;;5093851;28;20481;-63
2022/07/28 04:26:16;;;;;;;3.53;2.03;;;;;;;;;;5093914;28;20513;-63
2022/07/28 04:28:43;;;;;;;7.37;2.10;;;;;;;;;;5093976;28;20034;-63
2022/07/28 04:31:10;;;;;;;2.10;1.53;;;;;;;;;;5093539;28;20024;-63
2022/07/28 04:33:36;;;;;;;10.67;3.10;;;;;;;;;;5092578;28;20051;-63
2022/07/28 04:36:04;;;;;;;1.47;1.13;;;;;;;;;;5088467;28;20051;-63
2022/07/28 04:38:30;;;;;;;3.13;1.80;;;;;;;;;;5088466;28;20020;-63
2022/07/28 04:40:57;;;;;;;3.63;2.27;;;;;;;;;;5088174;28;20099;-63
2022/07/28 04:43:25;;;;;;;3.67;2.80;;;;;;;;;;5088398;28;20036;-63
2022/07/28 04:45:52;;;;;;;2.77;2.13;;;;;;;;;;5093016;28;20103;-64
2022/07/28 04:48:19;;;;;;;9.83;2.00;;;;;;;;;;5093792;28;20039;-64
2022/07/28 04:50:45;;;;;;;2.60;1.87;;;;;;;;;;5093423;28;20023;-64
2022/07/28 04:53:12;;;;;;;3.30;1.97;;;;;;;;;;5093495;28;20027;-64
2022/07/28 04:55:39;;;;;;;3.47;2.03;;;;;;;;;;5092967;28;20070;-64
2022/07/28 04:58:06;;;;;;;3.93;1.97;;;;;;;;;;5087999;28;20020;-63
2022/07/28 05:00:33;;;;;;;2.60;1.37;;;;;;;;;;5088037;28;20056;-64
2022/07/28 05:03:01;;;;;;;1.83;1.43;;;;;;;;;;5087705;28;20030;-64
2022/07/28 05:05:28;;;;;;;5.40;2.67;;;;;;;;;;5087913;28;20490;-63
2022/07/28 05:07:54;;;;;;;4.43;1.63;;;;;;;;;;5092814;28;20016;-63
2022/07/28 05:10:21;;;;;;;2.20;1.07;;;;;;;;;;5092411;28;20475;-64
2022/07/28 05:12:48;;;;;;;2.47;1.60;;;;;;;;;;5093178;28;20059;-63
2022/07/28 05:15:14;;;;;;;4.07;1.73;;;;;;;;;;5092838;28;20043;-64
2022/07/28 05:17:41;;;;;;;1.80;1.40;;;;;;;;;;5093098;28;20052;-63
2022/07/28 05:20:08;;;;;;;3.63;1.13;;;;;;;;;;5087231;28;20032;-63
2022/07/28 05:22:41;;;;;;;1.23;0.70;;;;;;;;;;5087854;28;20027;-63
2022/07/28 05:25:16;;;;;;;1.53;1.13;;;;;;;;;;5087519;28;20522;-64
2022/07/28 05:27:43;;;;;;;2.10;1.50;;;;;;;;;;5087509;28;20266;-64
2022/07/28 05:30:10;;;;;;;1.63;1.17;;;;;;;;;;5092718;28;20028;-63
2022/07/28 05:32:37;;;;;;;2.20;1.27;;;;;;;;;;5092353;28;20035;-64
2022/07/28 05:35:04;;;;;;;4.97;1.40;;;;;;;;;;5092575;28;20040;-64
2022/07/28 05:37:33;;;;;;;1.00;0.80;;;;;;;;;;5092723;28;20111;-63
2022/07/28 05:40:00;;;;;;;3.53;1.70;;;;;;;;;;5092239;28;20020;-64
2022/07/28 05:42:27;;;;;;;1.63;1.43;;;;;;;;;;5087299;28;20059;-63
2022/07/28 05:44:54;;;;;;;1.40;1.10;;;;;;;;;;5087136;28;20101;-64
2022/07/28 05:47:21;;;;;;;4.60;1.13;;;;;;;;;;5087299;28;20060;-64
2022/07/28 05:49:47;;;;;;;1.20;0.90;;;;;;;;;;5069102;28;21831;-64
2022/07/28 05:52:14;;;;;;;1.37;1.10;;;;;;;;;;5091595;28;20032;-63
2022/07/28 05:54:40;;;;;;;2.50;0.73;;;;;;;;;;5092432;28;20024;-63
2022/07/28 05:57:07;;;;;;;2.40;1.10;;;;;;;;;;5092438;28;20463;-64
2022/07/28 05:59:34;;;;;;;1.13;0.80;;;;;;;;;;5092254;28;20020;-64
2022/07/28 06:02:02;;;;;;;2.03;1.03;;;;;;;;;;5092392;28;20030;-63
2022/07/28 06:04:28;;;;;;;1.33;1.03;;;;;;;;;;5087525;28;20421;-64
2022/07/28 06:06:55;;;;;;;2.93;1.20;;;;;;;;;;5087016;28;20138;-64
2022/07/28 06:09:22;;;;;;;1.43;1.13;;;;;;;;;;5086500;28;20618;-63
2022/07/28 06:11:49;;;;;;;1.70;1.07;;;;;;;;;;5086982;28;20024;-63
2022/07/28 06:14:15;;;;;;;2.50;1.43;;;;;;;;;;5090632;28;20501;-63
2022/07/28 06:16:42;;;;;;;2.30;1.27;;;;;;;;;;5092086;28;20024;-64
2022/07/28 06:19:08;;;;;;;0.87;0.63;;;;;;;;;;5092328;28;20464;-63
2022/07/28 06:21:35;;;;;;;1.73;0.87;;;;;;;;;;5092054;28;20028;-63
2022/07/28 06:24:02;;;;;;;1.47;1.03;;;;;;;;;;5096503;28;20048;-63
2022/07/28 06:26:28;;;;;;;1.20;1.10;;;;;;;;;;5092396;28;20556;-63
2022/07/28 06:28:55;;;;;;;0.97;0.77;;;;;;;;;;5090982;28;20024;-65
2022/07/28 06:31:21;;;;;;;1.30;1.10;;;;;;;;;;5090898;28;20024;-63
2022/07/28 06:33:48;;;;;;;1.53;0.90;;;;;;;;;;5090569;28;20452;-64
2022/07/28 06:36:15;;;;;;;3.23;1.40;;;;;;;;;;5093828;28;20047;-63
2022/07/28 06:38:41;;;;;;;0.70;0.70;;;;;;;;;;5095316;28;20024;-64
2022/07/28 06:41:08;;;;;;;2.17;1.43;;;;;;;;;;5096148;28;20020;-63
2022/07/28 06:43:34;;;;;;;3.70;2.00;;;;;;;;;;5095923;28;20483;-63
2022/07/28 06:46:01;;;;;;;1.60;1.23;;;;;;;;;;5095432;28;20020;-64
2022/07/28 06:48:28;;;;;;;1.77;1.20;;;;;;;;;;5092839;28;20029;-63
2022/07/28 06:50:57;;;;;;;3.57;1.93;;;;;;;;;;5090506;28;20402;-62
2022/07/28 06:53:23;;;;;;;1.67;1.33;;;;;;;;;;5090336;28;20035;-61
2022/07/28 06:55:50;;;;;;;4.07;0.80;;;;;;;;;;5089832;28;20430;-61
2022/07/28 06:58:16;;;;;;;1.43;1.10;;;;;;;;;;5092853;28;20021;-61
2022/07/28 07:00:43;;;;;;;1.63;1.20;;;;;;;;;;5095724;28;20052;-61
2022/07/28 07:03:10;;;;;;;1.73;0.77;;;;;;;;;;5095606;28;20103;-61
2022/07/28 07:05:36;;;;;;;1.93;1.20;;;;;;;;;;5095583;28;20016;-61
2022/07/28 07:08:03;;;;;;;1.90;1.43;;;;;;;;;;5095427;28;20035;-61
2022/07/28 08:05:34;;;;;;;1.20;0.93;;;;;;;;;;5091785;28;20042;-61
2022/07/28 08:08:01;;;;;;;1.00;0.70;;;;;;;;;;5094486;28;20560;-60
2022/07/28 08:10:28;;;;;;;0.23;0.20;;;;;;;;;;5094300;28;20020;-61
2022/07/28 08:12:54;;;;;;;1.40;0.90;;;;;;;;;;5094292;28;20091;-61
2022/07/28 08:15:21;;;;;;;6.03;0.80;;;;;;;;;;5093956;28;20032;-61
2022/07/28 08:17:47;;;;;;;0.53;0.40;;;;;;;;;;5090848;28;20348;-61
2022/07/28 08:20:14;;;;;;;0.93;0.67;;;;;;;;;;5088810;28;20016;-61
2022/07/28 08:22:51;;;;;;;1.43;1.03;;;;;;;;;;5088664;28;20118;-61
2022/07/28 08:25:18;;;;;;;1.37;0.93;;;;;;;;;;5088761;28;20024;-62
2022/07/28 08:27:44;;;;;;;0.43;0.40;;;;;;;;;;5090601;28;20020;-61
2022/07/28 08:30:13;;;;;;;2.10;0.93;;;;;;;;;;5093606;28;20024;-61
2022/07/28 08:32:40;;;;;;;0.77;0.50;;;;;;;;;;5093573;28;20059;-61
2022/07/28 08:35:07;;;;;;;1.07;0.77;;;;;;;;;;5093517;28;20032;-61
2022/07/28 08:37:34;;;;;;;0.30;0.30;;;;;;;;;;5093805;28;20487;-61
2022/07/28 08:40:02;;;;;;;0.67;0.40;;;;;;;;;;5090572;28;20441;-61
2022/07/28 08:42:42;;;;;;;0.97;0.50;;;;;;;;;;5088321;28;20024;-60
2022/07/28 08:45:10;;;;;;;0.90;0.80;;;;;;;;;;5087108;28;20467;-61
2022/07/28 08:47:38;;;;;;;0.93;0.57;;;;;;;;;;5088057;28;20547;-61
2022/07/28 08:50:05;;;;;;;0.37;0.27;;;;;;;;;;5091240;28;20035;-61
2022/07/28 08:52:32;;;;;;;2.50;0.97;;;;;;;;;;5093494;28;20020;-61
2022/07/28 08:55:03;;;;;;;2.80;0.77;;;;;;;;;;5093440;28;20032;-61
2022/07/28 08:57:43;;;;;;;0.50;0.30;;;;;;;;;;5093110;28;20095;-61
2022/07/28 09:00:11;;;;;;;0.50;0.50;;;;;;;;;;5093417;28;20023;-61
2022/07/28 09:02:38;;;;;;;0.70;0.50;;;;;;;;;;5089434;28;20032;-61
2022/07/28 09:05:05;;;;;;;1.27;0.60;;;;;;;;;;5087863;28;20032;-61
2022/07/28 09:07:31;;;;;;;2.60;1.07;;;;;;;;;;5087170;28;20028;-61
2022/07/28 09:09:58;;;;;;;2.40;0.73;;;;;;;;;;5087967;28;20031;-61
2022/07/28 09:12:25;;;;;;;1.03;0.73;;;;;;;;;;5090927;28;20022;-61
2022/07/28 09:14:51;;;;;;;0.70;0.70;;;;;;;;;;5092707;28;20028;-61
2022/07/28 09:17:18;;;;;;;2.97;0.97;;;;;;;;;;5092733;28;20493;-61
2022/07/28 09:19:45;;;;;;;3.10;1.30;;;;;;;;;;5092994;28;20053;-61
2022/07/28 09:22:12;;;;;;;0.87;0.67;;;;;;;;;;5093231;28;20099;-61
2022/07/28 09:24:40;;;;;;;0.47;0.47;;;;;;;;;;5089471;28;20024;-61
2022/07/28 09:27:11;;;;;;;0.90;0.60;;;;;;;;;;5087316;28;20034;-61
2022/07/28 09:29:39;;;;;;;0.50;0.43;;;;;;;;;;5087085;28;20027;-61
2022/07/28 09:32:06;;;;;;;0.43;0.40;;;;;;;;;;5087532;28;20024;-61
2022/07/28 09:34:46;;;;;;;1.67;0.97;;;;;;;;;;5090201;28;20024;-61
2022/07/28 09:37:17;;;;;;;1.70;0.80;;;;;;;;;;5092460;28;20035;-61
2022/07/28 09:39:44;;;;;;;0.73;0.50;;;;;;;;;;5092711;28;20115;-61
2022/07/28 09:42:11;;;;;;;0.87;0.80;;;;;;;;;;5092235;28;20024;-61
2022/07/28 09:44:38;;;;;;;0.40;0.40;;;;;;;;;;5092736;28;20028;-61
2022/07/28 09:47:25;;;;;;;0.70;0.60;;;;;;;;;;5088723;28;20065;-61
2022/07/28 09:49:52;;;;;;;0.97;0.63;;;;;;;;;;5087416;28;20028;-61
2022/07/28 09:52:32;;;;;;;0.27;0.27;;;;;;;;;;5086906;28;20035;-61
2022/07/28 09:55:02;;;;;;;1.00;0.50;;;;;;;;;;5087043;28;20081;-61
2022/07/28 09:57:29;;;;;;;0.77;0.43;;;;;;;;;;5090880;28;20028;-61
2022/07/28 09:59:57;;;;;;;2.27;0.70;;;;;;;;;;5092386;28;20071;-61
2022/07/28 10:02:25;;;;;;;1.00;0.90;;;;;;;;;;5092402;28;20024;-61
2022/07/28 10:04:52;;;;;;;0.90;0.50;;;;;;;;;;5092078;28;20028;-61
2022/07/28 10:07:19;;;;;;;0.83;0.67;;;;;;;;;;5091178;28;20479;-61
2022/07/28 10:09:56;;;;;;;0.70;0.70;;;;;;;;;;5086979;28;20028;-61
2022/07/28 10:12:24;;;;;;;0.33;0.30;;;;;;;;;;5086407;28;20494;-61
2022/07/28 10:14:52;;;;;;;2.40;1.17;;;;;;;;;;5085985;28;20035;-61
2022/07/28 10:17:25;;;;;;;4.40;1.73;;;;;;;;;;5085578;28;20541;-63
2022/07/28 10:19:53;;;;;;;3.77;1.43;;;;;;;;;;5090703;28;20027;-61
2022/07/28 10:22:22;;;;;;;0.40;0.40;;;;;;;;;;5091315;28;20020;-61
2022/07/28 10:24:51;;;;;;;1.23;0.80;;;;;;;;;;5091357;28;20035;-61
2022/07/28 10:27:19;;;;;;;1.53;1.10;;;;;;;;;;5090988;28;20036;-61
2022/07/28 10:29:47;;;;;;;3.80;0.80;;;;;;;;;;5091402;28;20477;-61
2022/07/28 10:32:13;;;;;;;0.43;0.40;;;;;;;;;;5085249;28;20051;-61
2022/07/28 10:34:44;;;;;;;1.17;0.97;;;;;;;;;;5086008;28;20039;-61
2022/07/28 10:37:17;;;;;;;0.90;0.73;;;;;;;;;;5085630;28;20036;-61
2022/07/28 10:39:47;;;;;;;1.07;0.83;;;;;;;;;;5085852;28;20024;-61
2022/07/28 10:42:15;;;;;;;1.10;1.00;;;;;;;;;;5091084;28;20028;-61
2022/07/28 10:44:42;;;;;;;1.13;1.03;;;;;;;;;;5090628;28;20024;-61
2022/07/28 10:47:09;;;;;;;0.90;0.83;;;;;;;;;;5090623;28;20074;-60
2022/07/28 10:49:36;;;;;;;1.37;0.90;;;;;;;;;;5091018;28;20032;-60
2022/07/28 10:52:05;;;;;;;15.97;1.33;;;;;;;;;;5090922;28;20028;-61
2022/07/28 10:54:34;;;;;;;2.37;0.87;;;;;;;;;;5085635;28;20060;-61
2022/07/28 10:57:01;;;;;;;0.87;0.80;;;;;;;;;;5085407;28;20379;-61
2022/07/28 10:59:48;;;;;;;0.93;0.83;;;;;;;;;;5085139;28;20045;-61
2022/07/28 11:02:33;;;;;;;1.10;1.00;;;;;;;;;;5074878;28;20032;-61
2022/07/28 11:05:02;;;;;;;0.70;0.68;;;;;;;;;;5090826;28;20107;-61
2022/07/28 11:07:39;;;;;;;0.93;0.70;;;;;;;;;;5021103;28;1949631;-61
2022/07/28 11:10:16;;;;;;;1.27;1.07;;;;;;;;;;5095597;28;20031;-61
2022/07/28 11:12:48;;;;;;;7.57;1.50;;;;;;;;;;5095707;28;20374;-60
2022/07/28 11:15:35;;;;;;;1.27;1.10;;;;;;;;;;5093484;28;20040;-61
2022/07/28 11:18:09;;;;;;;1.47;0.97;;;;;;;;;;5090127;28;20413;-62
2022/07/28 11:20:57;;;;;;;0.90;0.70;;;;;;;;;;5090134;28;20034;-60
2022/07/28 11:23:42;;;;;;;4.60;1.60;;;;;;;;;;5089444;28;20089;-61
2022/07/28 11:26:33;;;;;;;1.17;1.05;;;;;;;;;;5092808;28;20024;-62
2022/07/28 11:29:03;;;;;;;2.03;1.60;;;;;;;;;;5094921;28;20070;-61
2022/07/28 11:31:45;;;;;;;1.17;1.07;;;;;;;;;;5095204;28;20020;-61
2022/07/28 11:34:12;;;;;;;1.10;0.83;;;;;;;;;;5094907;28;20386;-61
2022/07/28 11:36:58;;;;;;;1.83;1.00;;;;;;;;;;5094751;28;20024;-60
2022/07/28 11:39:25;;;;;;;1.33;1.00;;;;;;;;;;5089298;28;20077;-61
2022/07/28 11:41:52;;;;;;;1.67;1.27;;;;;;;;;;5089530;28;20016;-61
2022/07/28 11:44:27;;;;;;;1.30;0.80;;;;;;;;;;5089595;28;20024;-61
2022/07/28 11:46:54;;;;;;;2.03;1.50;;;;;;;;;;5089223;28;20036;-61
2022/07/28 11:49:23;;;;;;;0.47;0.47;;;;;;;;;;5094859;28;20483;-61
2022/07/28 11:52:09;;;;;;;1.20;1.10;;;;;;;;;;5094325;28;20145;-61
2022/07/28 11:54:36;;;;;;;1.43;1.03;;;;;;;;;;5094608;28;20028;-60
2022/07/28 11:57:03;;;;;;;1.70;1.30;;;;;;;;;;5094233;28;20360;-61
2022/07/28 11:59:43;;;;;;;1.20;0.60;;;;;;;;;;5093386;28;20379;-61
2022/07/28 12:02:10;;;;;;;3.17;0.80;;;;;;;;;;5070687;28;20028;-61
2022/07/28 12:04:37;;;;;;;1.23;0.53;;;;;;;;;;5089325;28;20016;-61
2022/07/28 12:07:04;;;;;;;1.17;0.80;;;;;;;;;;5088859;28;20114;-61
2022/07/28 12:09:31;;;;;;;3.60;1.93;;;;;;;;;;5090006;28;20025;-61
2022/07/28 12:11:58;;;;;;;1.13;0.83;;;;;;;;;;5094305;28;20028;-61
2022/07/28 12:14:33;;;;;;;7.40;1.57;;;;;;;;;;5094173;28;20134;-61
2022/07/28 12:17:00;;;;;;;1.37;0.90;;;;;;;;;;5093827;28;20467;-61
2022/07/28 12:19:31;;;;;;;5.23;1.47;;;;;;;;;;5092952;28;20222;-61
2022/07/28 12:21:57;;;;;;;1.57;1.10;;;;;;;;;;5092360;28;20090;-61
2022/07/28 12:24:28;;;;;;;2.27;1.07;;;;;;;;;;5088723;28;20025;-61
2022/07/28 12:26:56;;;;;;;0.70;0.60;;;;;;;;;;5088339;28;20495;-61
2022/07/28 12:29:23;;;;;;;2.03;1.10;;;;;;;;;;5088077;28;20339;-61
2022/07/28 12:31:53;;;;;;;1.37;0.97;;;;;;;;;;5089403;28;20162;-61
2022/07/28 12:34:20;;;;;;;0.87;0.83;;;;;;;;;;5093768;28;20471;-61
2022/07/28 12:36:47;;;;;;;0.90;0.80;;;;;;;;;;5093649;28;20020;-61
2022/07/28 12:39:14;;;;;;;1.20;0.93;;;;;;;;;;5093942;28;20035;-61
2022/07/28 12:41:41;;;;;;;1.30;0.70;;;;;;;;;;5093794;28;20110;-61
2022/07/28 12:44:07;;;;;;;2.10;1.33;;;;;;;;;;5091790;28;20023;-61
2022/07/28 12:46:34;;;;;;;0.53;0.50;;;;;;;;;;5087784;28;20028;-62
2022/07/28 12:49:02;;;;;;;1.03;0.90;;;;;;;;;;5088202;28;20092;-61
2022/07/28 12:51:31;;;;;;;7.60;1.43;;;;;;;;;;5088081;28;20059;-62
2022/07/28 12:53:58;;;;;;;1.00;0.80;;;;;;;;;;5089010;28;20032;-61
2022/07/28 12:56:25;;;;;;;2.70;1.13;;;;;;;;;;5093094;28;20111;-61
2022/07/28 12:59:08;;;;;;;1.23;0.90;;;;;;;;;;5092980;28;20405;-60
2022/07/28 13:01:44;;;;;;;2.60;0.97;;;;;;;;;;5093290;28;20115;-60
2022/07/28 13:04:11;;;;;;;2.40;1.77;;;;;;;;;;5093401;28;20494;-60
2022/07/28 13:06:39;;;;;;;7.63;1.30;;;;;;;;;;5090667;28;20122;-59
2022/07/28 13:09:06;;;;;;;0.47;0.47;;;;;;;;;;5087480;28;20132;-59
2022/07/28 13:11:33;;;;;;;3.03;1.10;;;;;;;;;;5087830;28;20324;-60
2022/07/28 13:14:00;;;;;;;11.30;1.27;;;;;;;;;;5087613;28;20107;-60
2022/07/28 13:16:28;;;;;;;1.20;1.10;;;;;;;;;;5088829;28;20024;-60
2022/07/28 13:18:56;;;;;;;1.80;1.33;;;;;;;;;;5093022;28;20027;-59
2022/07/28 13:21:40;;;;;;;3.30;2.07;;;;;;;;;;5092353;28;20020;-59
2022/07/28 13:24:10;;;;;;;1.87;1.60;;;;;;;;;;5072633;28;20158;-59
2022/07/28 13:26:37;;;;;;;2.53;1.43;;;;;;;;;;5091093;28;20012;-60
2022/07/28 13:29:05;;;;;;;1.60;1.10;;;;;;;;;;5086123;28;20024;-59
2022/07/28 13:31:34;;;;;;;2.03;1.53;;;;;;;;;;5086349;28;20021;-60
2022/07/28 13:34:08;;;;;;;1.23;0.90;;;;;;;;;;5086889;28;20032;-60
2022/07/28 13:36:36;;;;;;;2.53;1.30;;;;;;;;;;5087217;28;21467;-60
2022/07/28 13:39:03;;;;;;;2.63;1.60;;;;;;;;;;5088889;28;20277;-60
2022/07/28 13:41:30;;;;;;;3.17;1.87;;;;;;;;;;5092583;28;20028;-60
2022/07/28 13:43:59;;;;;;;2.33;1.47;;;;;;;;;;5092474;28;20119;-60
2022/07/28 13:46:26;;;;;;;3.40;1.57;;;;;;;;;;5092438;28;20064;-60
2022/07/28 13:48:53;;;;;;;1.43;1.10;;;;;;;;;;5091800;28;20055;-61
2022/07/28 13:51:19;;;;;;;6.23;1.70;;;;;;;;;;5089938;28;20051;-60
2022/07/28 13:53:46;;;;;;;2.30;1.23;;;;;;;;;;5087031;28;20089;-60
2022/07/28 13:56:13;;;;;;;1.87;1.17;;;;;;;;;;5086751;28;20039;-60
2022/07/28 13:58:39;;;;;;;1.30;1.07;;;;;;;;;;5086651;28;20031;-60
2022/07/28 14:01:06;;;;;;;2.30;1.27;;;;;;;;;;5088602;28;20052;-60
2022/07/28 14:03:33;;;;;;;2.07;1.30;;;;;;;;;;5092489;28;20538;-60
2022/07/28 14:05:59;;;;;;;1.40;1.00;;;;;;;;;;5091840;28;20024;-60
2022/07/28 14:08:26;;;;;;;3.43;1.57;;;;;;;;;;5092077;28;20035;-60
2022/07/28 14:10:55;;;;;;;2.37;1.20;;;;;;;;;;5092344;28;20513;-60
2022/07/28 14:13:22;;;;;;;2.30;1.30;;;;;;;;;;5089470;28;20434;-60
2022/07/28 14:15:49;;;;;;;2.00;1.20;;;;;;;;;;5086790;28;20383;-60
2022/07/28 14:18:15;;;;;;;4.77;1.67;;;;;;;;;;5086552;28;20031;-61
2022/07/28 14:20:42;;;;;;;2.77;1.60;;;;;;;;;;5086459;28;20048;-61
2022/07/28 14:23:09;;;;;;;3.13;1.47;;;;;;;;;;5087163;28;20024;-61
2022/07/28 14:25:35;;;;;;;4.27;1.50;;;;;;;;;;5091548;28;20486;-61
2022/07/28 14:28:02;;;;;;;1.47;1.07;;;;;;;;;;5092171;28;20479;-61
2022/07/28 14:30:29;;;;;;;2.63;1.37;;;;;;;;;;5091941;28;20028;-61
2022/07/28 14:32:56;;;;;;;2.20;1.40;;;;;;;;;;5091848;28;20055;-61
2022/07/28 14:35:23;;;;;;;3.17;1.93;;;;;;;;;;5090387;28;20028;-61
2022/07/28 14:37:50;;;;;;;6.83;1.33;;;;;;;;;;5086238;28;20024;-61
2022/07/28 14:40:17;;;;;;;1.33;1.03;;;;;;;;;;5086235;28;20471;-61
2022/07/28 14:42:44;;;;;;;2.97;1.53;;;;;;;;;;5086960;28;20028;-61
2022/07/28 14:45:11;;;;;;;1.93;1.27;;;;;;;;;;5091432;28;20016;-61
2022/07/28 14:47:38;;;;;;;3.90;1.30;;;;;;;;;;5095819;28;20024;-61
2022/07/28 14:50:04;;;;;;;2.37;1.30;;;;;;;;;;5095735;28;20024;-61
2022/07/28 14:52:31;;;;;;;2.93;1.33;;;;;;;;;;5095738;28;20035;-61
2022/07/28 14:54:58;;;;;;;2.00;1.37;;;;;;;;;;5095577;28;20059;-61
2022/07/28 14:57:24;;;;;;;1.97;0.87;;;;;;;;;;5094574;28;21110;-61
2022/07/28 14:59:51;;;;;;;0.50;0.50;;;;;;;;;;5089831;28;20094;-61
2022/07/28 15:02:18;;;;;;;1.43;1.00;;;;;;;;;;5090142;28;20028;-61
2022/07/28 15:04:44;;;;;;;2.27;1.20;;;;;;;;;;5090051;28;20049;-64
2022/07/28 15:07:11;;;;;;;1.33;0.83;;;;;;;;;;5090432;28;20099;-64
2022/07/28 15:09:38;;;;;;;3.73;1.17;;;;;;;;;;5095033;28;20019;-64
2022/07/28 15:12:04;;;;;;;1.60;0.90;;;;;;;;;;5075253;28;20360;-64
2022/07/28 15:14:31;;;;;;;1.50;1.05;;;;;;;;;;5087368;28;20043;-63
2022/07/28 15:16:59;;;;;;;2.03;1.10;;;;;;;;;;5095407;28;20019;-64
2022/07/28 15:19:25;;;;;;;1.60;0.90;;;;;;;;;;5094869;28;20020;-65
2022/07/28 15:21:52;;;;;;;2.38;0.95;;;;;;;;;;5089692;28;20032;-64
2022/07/28 15:24:21;;;;;;;0.68;0.50;;;;;;;;;;5089496;28;20028;-64
2022/07/28 15:26:47;;;;;;;5.72;1.08;;;;;;;;;;5089462;28;20028;-64
2022/07/28 15:29:14;;;;;;;1.40;0.88;;;;;;;;;;5089692;28;20456;-64
2022/07/28 15:31:41;;;;;;;3.33;1.20;;;;;;;;;;5095179;28;20012;-64
2022/07/28 15:34:08;;;;;;;2.67;0.90;;;;;;;;;;5094521;28;20028;-65
2022/07/28 15:36:34;;;;;;;2.17;0.73;;;;;;;;;;5094885;28;20024;-64
2022/07/28 15:39:01;;;;;;;1.48;0.75;;;;;;;;;;5094619;28;20023;-64
2022/07/28 15:41:28;;;;;;;1.33;0.95;;;;;;;;;;5094845;28;20040;-64
2022/07/28 15:43:55;;;;;;;2.92;0.70;;;;;;;;;;5088750;28;20027;-64
2022/07/28 15:46:21;;;;;;;1.48;0.90;;;;;;;;;;5089418;28;20035;-64
2022/07/28 15:48:48;;;;;;;1.00;0.52;;;;;;;;;;5089416;28;20048;-66